Time;durP1;ratioP1;P1;durP2;ratioP2;P2;SDS_P1;SDS_P2;PMS_P1;PMS_P2;Temp;Humidity;BMP_temperature;BMP_pressure;BME280_temperature;BME280_humidity;BME280_pressure;Samples;Min_cycle;Max_cycle;Signal;HPM_P1;HPM_P2
2021/11/03 00:01:19;;;;;;;4.23;3.73;;;8.30;90.00;;;;;;5053503;28;20450;-67
2021/11/03 00:03:48;;;;;;;5.40;3.77;;;8.30;90.10;;;;;;5053423;28;20449;-67
2021/11/03 00:06:17;;;;;;;5.50;4.60;;;8.40;90.20;;;;;;5053685;28;20507;-67
2021/11/03 00:08:45;;;;;;;5.20;4.70;;;8.40;90.20;;;;;;5053712;28;20477;-67
2021/11/03 00:11:12;;;;;;;5.97;5.37;;;8.30;90.10;;;;;;5053369;28;20449;-67
2021/11/03 00:13:40;;;;;;;9.50;4.40;;;8.40;90.10;;;;;;5053673;28;20452;-67
2021/11/03 00:16:07;;;;;;;4.47;4.03;;;8.40;89.80;;;;;;5053624;28;20452;-67
2021/11/03 00:18:34;;;;;;;5.50;4.50;;;8.40;89.70;;;;;;5053471;28;20839;-67
2021/11/03 00:21:02;;;;;;;5.17;4.67;;;8.40;89.40;;;;;;5053624;28;20452;-68
2021/11/03 00:23:29;;;;;;;6.07;4.00;;;8.40;89.00;;;;;;5054443;28;20456;-67
2021/11/03 00:25:56;;;;;;;5.50;4.20;;;8.40;88.40;;;;;;5053156;28;20474;-67
2021/11/03 00:28:23;;;;;;;4.30;3.93;;;8.40;87.80;;;;;;5053113;28;20462;-67
2021/11/03 00:30:54;;;;;;;9.57;4.60;;;8.40;87.10;;;;;;5053099;28;20461;-67
2021/11/03 00:33:25;;;;;;;5.97;5.37;;;8.30;87.60;;;;;;5053457;28;20433;-67
2021/11/03 00:35:52;;;;;;;5.70;5.13;;;8.30;86.80;;;;;;5053165;28;20795;-67
2021/11/03 00:38:20;;;;;;;5.80;4.70;;;8.30;87.10;;;;;;5053251;28;20469;-67
2021/11/03 00:40:47;;;;;;;8.60;5.53;;;8.30;87.20;;;;;;5053318;28;20477;-67
2021/11/03 00:43:13;;;;;;;5.97;5.40;;;8.30;86.90;;;;;;5053402;28;20627;-67
2021/11/03 00:45:40;;;;;;;5.93;5.37;;;8.20;87.20;;;;;;5053178;28;20485;-67
2021/11/03 00:48:09;;;;;;;6.83;4.63;;;8.20;87.30;;;;;;5057371;28;20487;-67
2021/11/03 00:50:36;;;;;;;7.47;5.53;;;8.20;87.20;;;;;;5057115;28;20449;-67
2021/11/03 00:53:03;;;;;;;7.43;4.43;;;8.20;87.10;;;;;;5057349;28;20524;-67
2021/11/03 00:55:30;;;;;;;5.60;5.10;;;8.20;87.00;;;;;;5057263;28;20454;-67
2021/11/03 00:57:56;;;;;;;5.73;5.20;;;8.20;86.90;;;;;;5057226;28;20470;-67
2021/11/03 01:00:23;;;;;;;6.47;4.80;;;8.20;87.40;;;;;;5057219;28;20457;-67
2021/11/03 01:02:51;;;;;;;5.00;4.50;;;8.10;86.10;;;;;;5057372;28;20457;-67
2021/11/03 01:05:22;;;;;;;6.33;4.70;;;8.10;86.00;;;;;;5056707;28;21105;-67
2021/11/03 01:07:49;;;;;;;7.13;4.70;;;8.00;85.80;;;;;;5057082;28;20480;-67
2021/11/03 01:10:17;;;;;;;5.07;4.67;;;8.00;85.70;;;;;;5057237;28;20438;-68
2021/11/03 01:12:44;;;;;;;9.30;5.10;;;8.00;85.80;;;;;;5056854;28;20936;-68
2021/11/03 01:15:16;;;;;;;4.93;4.43;;;8.00;86.10;;;;;;5056731;28;20965;-68
2021/11/03 01:17:43;;;;;;;5.00;4.53;;;7.90;85.90;;;;;;5056926;28;20466;-68
2021/11/03 01:20:13;;;;;;;5.50;4.40;;;7.90;85.80;;;;;;5056922;28;20460;-68
2021/11/03 01:22:41;;;;;;;7.20;5.20;;;7.90;85.80;;;;;;5056954;28;20441;-67
2021/11/03 01:25:10;;;;;;;7.37;3.93;;;7.90;86.10;;;;;;5056461;28;20481;-67
2021/11/03 01:27:38;;;;;;;8.10;4.80;;;7.90;86.00;;;;;;5056640;28;20476;-68
2021/11/03 01:30:06;;;;;;;4.70;3.90;;;7.80;85.90;;;;;;5056329;28;20465;-68
2021/11/03 01:32:33;;;;;;;6.03;4.87;;;7.80;86.10;;;;;;5056693;28;20453;-67
2021/11/03 01:35:00;;;;;;;4.87;4.40;;;7.80;86.20;;;;;;5056230;28;20864;-67
2021/11/03 01:37:27;;;;;;;6.70;4.80;;;7.80;86.20;;;;;;5056543;28;20457;-68
2021/11/03 01:39:55;;;;;;;5.20;4.70;;;7.80;86.30;;;;;;5056546;28;20453;-67
2021/11/03 01:42:22;;;;;;;8.07;4.67;;;7.80;86.20;;;;;;5056571;28;20441;-67
2021/11/03 01:44:48;;;;;;;4.97;4.50;;;7.80;86.00;;;;;;5056451;28;20488;-67
2021/11/03 01:47:39;;;;;;;7.87;5.10;;;7.70;86.00;;;;;;5056184;28;20456;-67
2021/11/03 01:50:11;;;;;;;5.00;4.50;;;7.70;86.00;;;;;;5056336;28;20471;-67
2021/11/03 01:52:38;;;;;;;4.70;4.30;;;7.70;86.40;;;;;;5056386;28;20444;-67
2021/11/03 01:55:09;;;;;;;4.33;3.87;;;7.70;86.80;;;;;;5056238;28;20457;-67
2021/11/03 01:57:43;;;;;;;13.93;4.67;;;7.70;87.10;;;;;;5055451;28;20847;-68
2021/11/03 02:00:13;;;;;;;4.30;3.90;;;7.70;87.50;;;;;;5056738;28;20487;-67
2021/11/03 02:02:41;;;;;;;4.43;3.97;;;7.70;87.90;;;;;;5057381;28;20426;-67
2021/11/03 02:05:09;;;;;;;6.40;4.10;;;7.70;88.10;;;;;;5056875;28;20485;-67
2021/11/03 02:07:36;;;;;;;5.33;4.53;;;7.70;88.00;;;;;;5055977;28;20434;-68
2021/11/03 02:10:06;;;;;;;4.30;4.00;;;7.70;88.10;;;;;;5055974;28;20456;-68
2021/11/03 02:12:33;;;;;;;3.90;3.47;;;7.70;87.90;;;;;;5055620;28;20947;-67
2021/11/03 02:15:00;;;;;;;4.37;4.00;;;7.70;88.00;;;;;;5055908;28;20452;-67
2021/11/03 02:17:29;;;;;;;4.70;3.93;;;7.70;88.20;;;;;;5055787;28;20483;-68
2021/11/03 02:20:00;;;;;;;6.23;3.70;;;7.70;88.50;;;;;;5055767;28;20439;-67
2021/11/03 02:22:34;;;;;;;4.80;3.80;;;7.70;88.70;;;;;;5055859;28;20426;-67
2021/11/03 02:25:06;;;;;;;5.17;3.90;;;7.70;88.80;;;;;;5055692;28;20465;-67
2021/11/03 02:27:37;;;;;;;4.63;3.80;;;7.70;89.00;;;;;;5055371;28;20912;-68
2021/11/03 02:30:06;;;;;;;4.60;3.80;;;7.70;89.20;;;;;;5055338;28;20470;-68
2021/11/03 02:32:34;;;;;;;3.70;3.30;;;7.70;89.40;;;;;;5055639;28;20480;-67
2021/11/03 02:35:01;;;;;;;4.50;3.70;;;7.70;89.70;;;;;;5055652;28;20467;-67
2021/11/03 02:37:47;;;;;;;4.67;3.47;;;7.70;90.00;;;;;;5055455;28;20446;-67
2021/11/03 02:40:34;;;;;;;4.80;4.33;;;7.70;90.20;;;;;;5055544;28;20508;-67
2021/11/03 02:43:04;;;;;;;4.03;3.73;;;7.70;90.40;;;;;;5053434;28;20464;-67
2021/11/03 02:45:40;;;;;;;6.13;4.30;;;7.70;90.50;;;;;;5055024;28;20472;-67
2021/11/03 02:48:06;;;;;;;5.27;4.20;;;7.70;90.70;;;;;;5055253;28;20549;-67
2021/11/03 02:50:33;;;;;;;7.30;5.13;;;7.70;90.80;;;;;;5055283;28;20792;-67
2021/11/03 02:53:00;;;;;;;7.43;5.20;;;7.70;90.90;;;;;;5054867;28;20817;-68
2021/11/03 02:55:28;;;;;;;6.20;5.23;;;7.70;91.00;;;;;;5055052;28;20537;-68
2021/11/03 02:57:55;;;;;;;7.70;5.23;;;7.80;91.20;;;;;;5055062;28;20476;-67
2021/11/03 03:00:25;;;;;;;6.93;5.30;;;7.70;91.10;;;;;;5055102;28;20430;-67
2021/11/03 03:02:52;;;;;;;7.37;5.67;;;7.80;91.20;;;;;;5054946;28;20453;-67
2021/11/03 03:05:19;;;;;;;5.97;5.33;;;7.80;91.20;;;;;;5055103;28;20484;-67
2021/11/03 03:07:45;;;;;;;8.00;5.50;;;7.80;91.20;;;;;;5055046;28;20469;-68
2021/11/03 03:10:12;;;;;;;8.20;5.63;;;7.80;91.30;;;;;;5053611;28;20433;-68
2021/11/03 03:12:40;;;;;;;8.17;5.93;;;7.80;91.30;;;;;;5054971;28;20441;-68
2021/11/03 03:15:07;;;;;;;6.47;5.87;;;7.90;91.40;;;;;;5054906;28;20827;-67
2021/11/03 03:17:34;;;;;;;6.07;5.43;;;7.90;91.40;;;;;;5054620;28;20450;-68
2021/11/03 03:20:01;;;;;;;14.37;6.47;;;7.90;91.40;;;;;;5054760;28;20450;-68
2021/11/03 03:22:28;;;;;;;11.83;6.77;;;7.90;91.40;;;;;;5054264;28;20449;-67
2021/11/03 03:24:54;;;;;;;6.73;6.13;;;7.80;91.50;;;;;;5054619;28;20453;-67
2021/11/03 03:27:21;;;;;;;8.23;7.37;;;7.90;91.60;;;;;;5054395;28;20481;-68
2021/11/03 03:29:49;;;;;;;7.13;5.70;;;7.90;91.70;;;;;;5054235;28;20464;-68
2021/11/03 03:32:16;;;;;;;6.50;5.80;;;7.90;91.70;;;;;;5054454;28;20452;-68
2021/11/03 03:34:43;;;;;;;6.43;5.40;;;7.90;91.70;;;;;;5054397;28;20468;-67
2021/11/03 03:37:10;;;;;;;6.53;5.73;;;7.90;91.70;;;;;;5054283;28;20456;-67
2021/11/03 03:39:38;;;;;;;6.90;5.07;;;8.00;91.80;;;;;;5054164;28;20477;-67
2021/11/03 03:42:08;;;;;;;8.17;5.60;;;8.00;91.70;;;;;;5053953;28;20814;-67
2021/11/03 03:44:36;;;;;;;7.67;5.93;;;8.00;91.70;;;;;;5053917;28;20430;-67
2021/11/03 03:47:04;;;;;;;7.10;5.50;;;8.00;91.70;;;;;;5053822;28;20485;-67
2021/11/03 03:49:32;;;;;;;7.03;6.20;;;8.00;91.80;;;;;;5053988;28;20473;-67
2021/11/03 03:52:00;;;;;;;7.03;5.80;;;8.00;91.80;;;;;;5053748;28;20452;-67
2021/11/03 03:54:27;;;;;;;5.80;5.30;;;8.10;91.90;;;;;;5053955;28;20445;-67
2021/11/03 03:56:55;;;;;;;6.33;5.63;;;8.10;91.80;;;;;;5054003;28;20495;-67
2021/11/03 03:59:22;;;;;;;6.73;5.70;;;8.10;91.80;;;;;;5053628;28;20968;-67
2021/11/03 04:01:48;;;;;;;6.27;5.23;;;8.10;91.70;;;;;;5053598;28;20943;-67
2021/11/03 04:04:18;;;;;;;6.03;5.30;;;8.10;91.60;;;;;;5053889;28;20456;-67
2021/11/03 04:06:44;;;;;;;5.93;5.33;;;8.10;91.50;;;;;;5053967;28;20474;-67
2021/11/03 04:09:11;;;;;;;5.40;4.60;;;8.10;91.50;;;;;;5053833;28;20472;-68
2021/11/03 04:11:40;;;;;;;5.43;4.93;;;8.00;91.50;;;;;;5053757;28;20452;-68
2021/11/03 04:14:07;;;;;;;6.70;4.70;;;8.10;91.40;;;;;;5053825;28;20489;-67
2021/11/03 04:16:34;;;;;;;6.23;5.33;;;8.10;91.40;;;;;;5053701;28;20441;-67
2021/11/03 04:19:01;;;;;;;14.63;5.00;;;8.10;91.40;;;;;;5053585;28;20469;-67
2021/11/03 04:21:29;;;;;;;5.50;5.00;;;8.00;91.50;;;;;;5053199;28;20442;-67
2021/11/03 04:23:56;;;;;;;6.03;5.43;;;8.10;91.70;;;;;;5053610;28;20445;-67
2021/11/03 04:26:25;;;;;;;6.57;5.83;;;8.10;91.80;;;;;;5053465;28;20489;-67
2021/11/03 04:28:52;;;;;;;6.13;5.50;;;8.10;91.90;;;;;;5053199;28;20473;-68
2021/11/03 04:31:21;;;;;;;5.60;5.10;;;8.10;91.90;;;;;;5053212;28;20904;-68
2021/11/03 04:33:50;;;;;;;7.90;6.40;;;8.10;92.00;;;;;;5053463;28;20468;-67
2021/11/03 04:36:17;;;;;;;5.53;4.50;;;8.10;92.00;;;;;;5053409;28;20452;-67
2021/11/03 04:38:45;;;;;;;6.47;5.87;;;8.10;92.00;;;;;;5053260;28;20477;-67
2021/11/03 04:41:12;;;;;;;6.43;5.83;;;8.10;92.10;;;;;;5053360;28;20445;-67
2021/11/03 04:43:39;;;;;;;7.67;6.67;;;8.10;92.10;;;;;;5053534;28;20449;-67
2021/11/03 04:46:05;;;;;;;8.00;6.47;;;8.10;92.20;;;;;;5053405;28;20481;-67
2021/11/03 04:48:32;;;;;;;6.57;5.90;;;8.10;92.30;;;;;;5053400;28;20476;-67
2021/11/03 04:50:59;;;;;;;7.77;6.33;;;8.10;92.40;;;;;;5053356;28;20445;-67
2021/11/03 04:53:26;;;;;;;7.23;6.60;;;8.10;92.40;;;;;;5053373;28;20442;-67
2021/11/03 04:56:00;;;;;;;8.80;6.40;;;8.20;92.50;;;;;;5053369;28;20456;-67
2021/11/03 04:58:28;;;;;;;7.60;6.80;;;8.20;92.50;;;;;;5052841;28;20847;-67
2021/11/03 05:00:54;;;;;;;8.63;6.83;;;8.10;92.50;;;;;;5053298;28;20448;-67
2021/11/03 05:03:21;;;;;;;18.07;7.27;;;8.10;92.50;;;;;;5053194;28;20446;-67
2021/11/03 05:05:51;;;;;;;7.40;6.53;;;8.20;92.50;;;;;;5053093;28;20453;-67
2021/11/03 05:08:18;;;;;;;8.77;6.80;;;8.20;92.50;;;;;;5052684;28;20473;-67
2021/11/03 05:10:44;;;;;;;9.57;7.03;;;8.20;92.50;;;;;;5053096;28;20450;-67
2021/11/03 05:13:13;;;;;;;9.20;7.63;;;8.20;92.50;;;;;;5053176;28;20453;-67
2021/11/03 05:15:40;;;;;;;9.20;7.00;;;8.20;92.50;;;;;;5053090;28;20474;-68
2021/11/03 05:18:07;;;;;;;8.67;7.60;;;8.20;92.40;;;;;;5053004;28;20827;-68
2021/11/03 05:20:34;;;;;;;11.67;7.83;;;8.20;92.40;;;;;;5053083;28;20495;-67
2021/11/03 05:23:02;;;;;;;11.73;7.17;;;8.20;92.40;;;;;;5053081;28;20442;-67
2021/11/03 05:25:29;;;;;;;7.20;6.50;;;8.20;92.50;;;;;;5052921;28;20485;-67
2021/11/03 05:27:57;;;;;;;12.53;8.83;;;8.20;92.60;;;;;;5052790;28;20489;-68
2021/11/03 05:30:28;;;;;;;10.70;9.47;;;8.20;92.70;;;;;;5052594;28;20457;-67
2021/11/03 05:32:57;;;;;;;10.17;8.63;;;8.20;92.70;;;;;;5053612;28;20426;-68
2021/11/03 05:35:24;;;;;;;10.70;9.03;;;8.20;92.80;;;;;;5056607;28;20540;-67
2021/11/03 05:37:51;;;;;;;12.40;9.67;;;8.20;92.80;;;;;;5056567;28;20492;-67
2021/11/03 05:40:21;;;;;;;10.23;8.70;;;8.30;92.80;;;;;;5056460;28;20457;-67
2021/11/03 05:42:48;;;;;;;14.70;10.10;;;8.20;92.70;;;;;;5056529;28;20476;-67
2021/11/03 05:45:15;;;;;;;11.80;10.57;;;8.20;92.80;;;;;;5056550;28;20456;-67
2021/11/03 05:47:43;;;;;;;11.70;9.47;;;8.20;92.80;;;;;;5056313;28;20485;-67
2021/11/03 05:50:16;;;;;;;11.33;8.63;;;8.30;92.90;;;;;;5056243;28;20445;-67
2021/11/03 05:52:43;;;;;;;10.73;9.07;;;8.20;92.90;;;;;;5056289;28;20441;-67
2021/11/03 05:55:10;;;;;;;9.30;8.30;;;8.20;92.90;;;;;;5055939;28;20963;-67
2021/11/03 05:57:38;;;;;;;11.80;9.83;;;8.20;93.00;;;;;;5055944;28;20916;-67
2021/11/03 06:00:14;;;;;;;11.80;9.13;;;8.20;93.00;;;;;;5056278;28;20434;-67
2021/11/03 06:02:40;;;;;;;10.33;8.93;;;8.20;93.00;;;;;;5056160;28;20429;-67
2021/11/03 06:05:09;;;;;;;13.03;9.20;;;8.30;93.10;;;;;;5056107;28;20452;-67
2021/11/03 06:07:38;;;;;;;10.27;9.10;;;8.30;93.20;;;;;;5055863;28;20481;-67
2021/11/03 06:10:08;;;;;;;12.63;10.03;;;8.30;93.00;;;;;;5055938;28;20540;-67
2021/11/03 06:12:35;;;;;;;12.40;10.10;;;8.30;93.10;;;;;;5055807;28;20485;-67
2021/11/03 06:15:03;;;;;;;12.33;10.40;;;8.30;93.10;;;;;;5055861;28;20445;-67
2021/11/03 06:17:29;;;;;;;12.10;10.63;;;8.30;93.10;;;;;;5055501;28;20440;-67
2021/11/03 06:19:56;;;;;;;9.20;8.03;;;8.30;93.10;;;;;;5055949;28;20445;-67
2021/11/03 06:22:24;;;;;;;7.87;7.07;;;8.30;93.10;;;;;;5055810;28;20444;-67
2021/11/03 06:24:53;;;;;;;9.53;8.47;;;8.30;93.10;;;;;;5055648;28;20448;-67
2021/11/03 06:27:20;;;;;;;9.97;8.97;;;8.30;93.10;;;;;;5055138;28;20488;-68
2021/11/03 06:29:46;;;;;;;10.00;8.90;;;8.30;93.10;;;;;;5055168;28;20460;-67
2021/11/03 06:32:13;;;;;;;8.63;7.80;;;8.30;93.10;;;;;;5055661;28;20461;-67
2021/11/03 06:34:40;;;;;;;8.73;7.43;;;8.30;93.00;;;;;;5055242;28;20445;-67
2021/11/03 06:37:07;;;;;;;9.00;7.37;;;8.30;93.00;;;;;;5055581;28;20448;-67
2021/11/03 06:39:35;;;;;;;8.20;7.40;;;8.30;92.90;;;;;;5055471;28;20466;-67
2021/11/03 06:42:01;;;;;;;8.23;7.10;;;8.30;92.90;;;;;;5055310;28;20454;-67
2021/11/03 06:44:28;;;;;;;8.43;7.50;;;8.30;93.20;;;;;;5055135;28;20540;-67
2021/11/03 06:46:55;;;;;;;7.13;6.17;;;8.30;92.80;;;;;;5055269;28;20482;-67
2021/11/03 06:49:22;;;;;;;9.30;7.33;;;8.40;92.80;;;;;;5055317;28;20469;-67
2021/11/03 06:51:49;;;;;;;10.23;8.30;;;8.30;92.60;;;;;;5055280;28;20460;-67
2021/11/03 06:54:21;;;;;;;8.27;7.47;;;8.30;92.60;;;;;;5055308;28;20449;-68
2021/11/03 06:56:49;;;;;;;9.67;7.77;;;8.30;92.60;;;;;;5055209;28;20430;-67
2021/11/03 06:59:16;;;;;;;8.50;7.60;;;8.30;92.50;;;;;;5055249;28;20466;-67
2021/11/03 07:01:43;;;;;;;11.63;7.60;;;8.30;92.60;;;;;;5055044;28;20452;-67
2021/11/03 07:04:11;;;;;;;8.50;7.60;;;8.30;92.60;;;;;;5055008;28;20480;-67
2021/11/03 07:06:38;;;;;;;8.60;7.50;;;8.30;92.70;;;;;;5054512;28;21043;-67
2021/11/03 07:09:05;;;;;;;8.50;7.63;;;8.30;92.70;;;;;;5054830;28;20470;-67
2021/11/03 07:11:31;;;;;;;10.73;8.70;;;8.30;93.10;;;;;;5054800;28;20445;-67
2021/11/03 07:14:00;;;;;;;11.03;7.60;;;8.30;92.80;;;;;;5054843;28;20438;-67
2021/11/03 07:16:27;;;;;;;9.20;7.37;;;8.40;93.20;;;;;;5054761;28;20448;-67
2021/11/03 07:18:54;;;;;;;9.40;8.00;;;8.40;92.90;;;;;;5054644;28;20466;-67
2021/11/03 07:21:21;;;;;;;11.13;9.13;;;8.40;93.00;;;;;;5054629;28;20453;-67
2021/11/03 07:23:47;;;;;;;10.10;9.10;;;8.40;92.90;;;;;;5054627;28;20456;-67
2021/11/03 07:26:14;;;;;;;8.97;8.07;;;8.40;92.90;;;;;;5054239;28;20445;-67
2021/11/03 07:28:41;;;;;;;12.70;8.03;;;8.40;92.90;;;;;;5054316;28;20536;-67
2021/11/03 07:31:10;;;;;;;10.80;8.67;;;8.50;92.90;;;;;;5054475;28;20441;-67
2021/11/03 07:33:38;;;;;;;10.63;9.23;;;8.50;93.00;;;;;;5054327;28;20442;-67
2021/11/03 07:36:07;;;;;;;9.83;8.43;;;8.50;93.00;;;;;;5054449;28;20445;-67
2021/11/03 07:38:34;;;;;;;11.60;9.50;;;8.50;92.90;;;;;;5054282;28;20803;-67
2021/11/03 07:41:01;;;;;;;11.40;8.57;;;8.60;92.90;;;;;;5054310;28;20499;-67
2021/11/03 07:43:31;;;;;;;10.63;8.87;;;8.60;92.90;;;;;;5055236;28;20441;-67
2021/11/03 07:45:58;;;;;;;11.10;9.27;;;8.70;92.90;;;;;;5053763;28;20942;-67
2021/11/03 07:48:28;;;;;;;10.90;9.80;;;8.70;92.80;;;;;;5053974;28;20493;-67
2021/11/03 07:50:58;;;;;;;10.73;9.10;;;8.80;92.90;;;;;;5054224;28;20884;-67
2021/11/03 07:53:25;;;;;;;13.10;9.60;;;8.80;92.80;;;;;;5054134;28;20532;-67
2021/11/03 07:55:57;;;;;;;12.37;9.57;;;8.80;92.80;;;;;;5053517;28;20947;-67
2021/11/03 07:58:26;;;;;;;9.37;8.00;;;8.80;92.80;;;;;;5054124;28;20519;-68
2021/11/03 08:00:53;;;;;;;10.70;9.40;;;8.90;92.70;;;;;;5053951;28;20449;-68
2021/11/03 08:03:20;;;;;;;11.23;9.10;;;8.90;92.70;;;;;;5053854;28;20548;-68
2021/11/03 08:05:50;;;;;;;10.80;9.37;;;8.90;92.70;;;;;;5053564;28;20441;-68
2021/11/03 08:08:21;;;;;;;11.40;9.83;;;9.00;92.70;;;;;;5053619;28;20488;-68
2021/11/03 08:10:48;;;;;;;11.80;9.43;;;9.00;92.60;;;;;;5053361;28;20895;-68
2021/11/03 08:13:17;;;;;;;13.27;10.90;;;9.00;92.60;;;;;;5053688;28;20449;-67
2021/11/03 08:15:46;;;;;;;13.70;9.83;;;9.00;92.60;;;;;;5053616;28;20457;-67
2021/11/03 08:18:14;;;;;;;10.43;9.33;;;9.10;92.70;;;;;;5053297;28;20994;-68
2021/11/03 08:20:42;;;;;;;10.40;8.23;;;9.10;92.60;;;;;;5053556;28;20456;-68
2021/11/03 08:23:12;;;;;;;12.93;9.10;;;9.10;92.60;;;;;;5053525;28;20441;-68
2021/11/03 08:25:39;;;;;;;9.80;8.27;;;9.20;92.60;;;;;;5053583;28;20432;-68
2021/11/03 08:28:06;;;;;;;10.60;9.50;;;9.20;92.60;;;;;;5053536;28;20489;-67
2021/11/03 08:30:34;;;;;;;11.93;10.70;;;9.20;92.60;;;;;;5053512;28;20457;-67
2021/11/03 08:33:05;;;;;;;16.30;10.60;;;9.20;92.60;;;;;;5053689;28;20457;-68
2021/11/03 08:35:33;;;;;;;14.50;9.57;;;9.30;92.60;;;;;;5053516;28;20904;-68
2021/11/03 08:38:03;;;;;;;15.33;10.30;;;9.20;92.60;;;;;;5053560;28;20827;-68
2021/11/03 08:40:34;;;;;;;14.90;10.27;;;9.30;92.70;;;;;;5053026;28;20465;-67
2021/11/03 08:43:02;;;;;;;11.80;9.70;;;9.30;92.70;;;;;;5053430;28;20611;-67
2021/11/03 08:45:29;;;;;;;10.30;8.97;;;9.30;92.70;;;;;;5053529;28;20935;-67
2021/11/03 08:47:56;;;;;;;12.13;9.30;;;9.30;92.70;;;;;;5053130;28;20496;-67
2021/11/03 08:50:27;;;;;;;10.93;8.57;;;9.40;92.70;;;;;;5053332;28;20517;-67
2021/11/03 08:52:55;;;;;;;17.20;15.00;;;9.40;92.70;;;;;;5053275;28;20430;-67
2021/11/03 08:55:23;;;;;;;12.20;10.93;;;9.40;92.70;;;;;;5053163;28;20450;-67
2021/11/03 08:57:51;;;;;;;16.70;15.00;;;9.40;92.70;;;;;;5053164;28;20461;-67
2021/11/03 09:00:21;;;;;;;14.47;12.87;;;9.40;92.70;;;;;;5053228;28;20434;-67
2021/11/03 09:02:49;;;;;;;13.13;10.00;;;9.40;92.80;;;;;;5053183;28;20510;-67
2021/11/03 09:05:16;;;;;;;11.33;9.07;;;9.40;92.80;;;;;;5053094;28;20445;-67
2021/11/03 09:07:43;;;;;;;12.80;9.60;;;9.50;92.90;;;;;;5054908;28;20488;-67
2021/11/03 09:10:13;;;;;;;10.67;9.50;;;9.50;93.00;;;;;;5057127;28;20817;-67
2021/11/03 09:12:40;;;;;;;12.03;9.70;;;9.50;93.00;;;;;;5057304;28;20499;-67
2021/11/03 09:15:09;;;;;;;11.97;9.87;;;9.50;93.00;;;;;;5057132;28;20453;-67
2021/11/03 09:17:36;;;;;;;11.07;8.87;;;9.60;93.20;;;;;;5056937;28;20441;-67
2021/11/03 09:20:04;;;;;;;10.33;9.00;;;9.60;93.10;;;;;;5056614;28;20850;-67
2021/11/03 09:22:31;;;;;;;12.23;9.30;;;9.70;93.10;;;;;;5056533;28;20456;-68
2021/11/03 09:24:58;;;;;;;10.87;9.70;;;9.70;93.00;;;;;;5056489;28;20931;-67
2021/11/03 09:27:24;;;;;;;11.17;9.80;;;9.70;93.00;;;;;;5056292;28;20481;-68
2021/11/03 09:29:52;;;;;;;13.67;10.40;;;9.80;93.00;;;;;;5056396;28;20851;-67
2021/11/03 09:32:22;;;;;;;11.63;10.40;;;9.80;93.00;;;;;;5056712;28;20816;-67
2021/11/03 09:34:50;;;;;;;10.77;9.30;;;9.90;93.10;;;;;;5056369;28;20465;-67
2021/11/03 09:37:25;;;;;;;12.20;10.43;;;9.90;93.10;;;;;;5056594;28;20446;-67
2021/11/03 09:39:54;;;;;;;13.93;9.80;;;9.90;93.00;;;;;;5056210;28;20483;-67
2021/11/03 09:42:23;;;;;;;12.70;9.93;;;9.90;93.00;;;;;;5056544;28;20488;-68
2021/11/03 09:44:53;;;;;;;10.87;9.77;;;9.90;93.10;;;;;;5056573;28;20442;-68
2021/11/03 09:47:25;;;;;;;14.90;10.53;;;10.00;92.50;;;;;;5056217;28;20485;-68
2021/11/03 09:50:00;;;;;;;13.10;10.60;;;10.00;92.50;;;;;;5056456;28;20438;-69
2021/11/03 09:52:29;;;;;;;13.07;10.60;;;10.00;92.50;;;;;;5056444;28;20433;-68
2021/11/03 09:54:58;;;;;;;16.70;10.33;;;10.00;92.40;;;;;;5056240;28;20434;-68
2021/11/03 09:57:33;;;;;;;11.07;9.70;;;10.00;92.50;;;;;;5056130;28;20446;-69
2021/11/03 10:00:14;;;;;;;13.70;11.00;;;10.10;92.50;;;;;;5055858;28;20792;-68
2021/11/03 10:02:51;;;;;;;17.93;13.17;;;10.10;92.50;;;;;;5056186;28;20430;-68
2021/11/03 10:05:25;;;;;;;18.40;16.43;;;10.10;92.50;;;;;;5056105;28;20433;-68
2021/11/03 10:07:57;;;;;;;23.40;19.60;;;10.20;92.60;;;;;;5055933;28;20565;-68
2021/11/03 10:10:31;;;;;;;21.47;17.80;;;10.20;92.60;;;;;;5055699;28;20930;-68
2021/11/03 10:12:58;;;;;;;20.80;16.90;;;10.20;92.50;;;;;;5056058;28;20526;-68
2021/11/03 10:15:26;;;;;;;16.43;14.50;;;10.30;92.40;;;;;;5055910;28;20848;-68
2021/11/03 10:18:11;;;;;;;14.10;12.70;;;10.30;92.30;;;;;;5055639;28;20998;-68
2021/11/03 10:20:41;;;;;;;16.67;13.90;;;10.40;92.30;;;;;;5055409;28;20440;-68
2021/11/03 10:23:22;;;;;;;12.63;11.30;;;10.40;92.20;;;;;;5055819;28;20441;-68
2021/11/03 10:26:01;;;;;;;12.10;10.80;;;10.40;92.20;;;;;;5055732;28;20438;-68
2021/11/03 10:28:33;;;;;;;14.20;11.37;;;10.40;92.10;;;;;;5055554;28;20538;-68
2021/11/03 10:31:00;;;;;;;25.33;20.70;;;10.50;92.10;;;;;;5055717;28;20441;-68
2021/11/03 10:33:35;;;;;;;21.33;19.03;;;10.50;92.10;;;;;;5055547;28;20461;-68
2021/11/03 10:36:15;;;;;;;16.07;12.93;;;10.50;92.00;;;;;;5055352;28;20487;-68
2021/11/03 10:38:44;;;;;;;13.90;12.13;;;10.60;92.10;;;;;;5055217;28;20457;-68
2021/11/03 10:41:20;;;;;;;17.23;12.33;;;10.60;92.00;;;;;;5055418;28;20450;-68
2021/11/03 10:44:06;;;;;;;14.10;12.10;;;10.60;92.00;;;;;;5055468;28;20440;-68
2021/11/03 10:46:42;;;;;;;15.57;12.33;;;10.60;92.00;;;;;;5055362;28;20512;-68
2021/11/03 10:49:30;;;;;;;18.70;16.00;;;10.60;91.90;;;;;;5055171;28;20493;-68
2021/11/03 10:52:02;;;;;;;17.87;13.23;;;10.60;92.00;;;;;;5054800;28;20840;-68
2021/11/03 10:54:43;;;;;;;17.73;15.83;;;10.60;92.10;;;;;;5055201;28;20442;-68
2021/11/03 10:57:25;;;;;;;25.00;22.10;;;10.60;92.00;;;;;;5055410;28;20790;-68
2021/11/03 11:00:04;;;;;;;21.87;19.67;;;10.60;92.00;;;;;;5055097;28;20437;-68
2021/11/03 11:02:32;;;;;;;28.43;25.70;;;10.60;92.10;;;;;;5055820;28;20488;-68
2021/11/03 11:05:05;;;;;;;30.43;27.73;;;10.60;92.00;;;;;;5054964;28;20529;-68
2021/11/03 11:07:35;;;;;;;19.73;17.90;;;10.60;92.00;;;;;;5054515;28;20422;-69
2021/11/03 11:10:15;;;;;;;12.23;11.03;;;10.60;92.00;;;;;;5054908;28;20434;-68
2021/11/03 11:12:45;;;;;;;14.53;11.63;;;10.70;92.00;;;;;;5054541;28;20931;-68
2021/11/03 11:15:21;;;;;;;17.70;15.80;;;10.70;92.00;;;;;;5054915;28;20452;-68
2021/11/03 11:17:53;;;;;;;23.70;21.07;;;10.70;92.10;;;;;;5054461;28;20465;-68
2021/11/03 11:20:28;;;;;;;18.50;15.70;;;10.70;91.90;;;;;;5054752;28;20452;-68
2021/11/03 11:23:04;;;;;;;12.60;11.37;;;10.70;91.90;;;;;;5054295;28;20907;-68
2021/11/03 11:25:38;;;;;;;13.60;10.87;;;10.70;91.80;;;;;;5055142;28;20520;-68
2021/11/03 11:28:19;;;;;;;9.40;8.50;;;10.80;91.90;;;;;;5054047;28;20485;-68
2021/11/03 11:30:52;;;;;;;12.60;10.57;;;10.80;91.90;;;;;;5053163;28;20496;-68
2021/11/03 11:33:25;;;;;;;10.10;9.10;;;10.80;91.80;;;;;;5054414;28;20444;-68
2021/11/03 11:36:22;;;;;;;10.33;8.70;;;10.80;91.80;;;;;;5054100;28;20437;-68
2021/11/03 11:39:02;;;;;;;13.43;9.17;;;10.70;91.80;;;;;;5043550;28;20481;-68
2021/11/03 11:41:35;;;;;;;12.63;10.03;;;10.70;91.80;;;;;;5053987;28;20937;-68
2021/11/03 11:44:07;;;;;;;13.30;9.50;;;10.70;92.20;;;;;;5053948;28;20856;-68
2021/11/03 11:46:35;;;;;;;12.80;10.60;;;10.60;92.20;;;;;;5053821;28;20912;-68
2021/11/03 11:49:09;;;;;;;12.00;10.80;;;10.60;91.90;;;;;;5053605;28;21004;-68
2021/11/03 11:51:43;;;;;;;12.10;10.80;;;10.60;92.00;;;;;;5054061;28;20429;-68
2021/11/03 11:54:28;;;;;;;14.13;11.40;;;10.60;92.10;;;;;;5054040;28;20440;-68
2021/11/03 11:57:26;;;;;;;12.37;9.87;;;10.60;92.20;;;;;;5053971;28;20429;-68
2021/11/03 12:00:10;;;;;;;15.03;11.47;;;10.60;92.30;;;;;;5053601;28;20967;-69
2021/11/03 12:02:53;;;;;;;14.43;11.13;;;10.60;92.70;;;;;;5053581;28;20430;-69
2021/11/03 12:05:27;;;;;;;15.10;11.03;;;10.60;92.40;;;;;;5053874;28;20422;-69
2021/11/03 12:08:19;;;;;;;13.00;10.50;;;10.60;92.50;;;;;;5053656;28;20458;-69
2021/11/03 12:11:15;;;;;;;11.43;9.73;;;10.60;92.50;;;;;;5053747;28;20465;-69
2021/11/03 12:14:15;;;;;;;12.07;9.20;;;10.60;92.50;;;;;;5053754;28;20437;-68
2021/11/03 12:16:56;;;;;;;14.77;10.67;;;10.60;92.50;;;;;;5044899;28;20457;-68
2021/11/03 12:19:57;;;;;;;15.87;11.30;;;10.60;92.60;;;;;;5053272;28;20822;-68
2021/11/03 12:22:47;;;;;;;11.73;10.00;;;10.60;93.10;;;;;;5011796;28;20981;-68
2021/11/03 12:25:43;;;;;;;11.60;10.40;;;10.50;92.80;;;;;;5012078;28;20456;-68
2021/11/03 12:28:34;;;;;;;12.10;10.37;;;10.60;93.00;;;;;;5045458;28;20485;-68
2021/11/03 12:31:16;;;;;;;13.73;10.37;;;10.50;92.90;;;;;;5053653;28;20436;-68
2021/11/03 12:34:22;;;;;;;14.10;11.43;;;10.50;93.00;;;;;;5053509;28;20425;-68
2021/11/03 12:37:00;;;;;;;12.63;11.30;;;10.50;93.00;;;;;;5053549;28;20432;-68
2021/11/03 12:40:15;;;;;;;12.20;9.80;;;10.50;93.10;;;;;;5053388;28;20461;-68
2021/11/03 12:42:54;;;;;;;11.63;10.20;;;10.50;93.20;;;;;;5052901;28;20438;-68
2021/11/03 12:45:24;;;;;;;13.73;11.87;;;10.50;93.20;;;;;;5053383;28;20441;-69
2021/11/03 12:47:55;;;;;;;11.60;10.40;;;10.50;93.20;;;;;;5053330;28;20461;-68
2021/11/03 12:50:26;;;;;;;13.97;11.20;;;10.50;93.30;;;;;;5053406;28;20434;-68
2021/11/03 12:53:03;;;;;;;17.97;11.53;;;10.50;93.30;;;;;;5053337;28;20447;-68
2021/11/03 12:55:34;;;;;;;15.03;12.10;;;10.50;93.30;;;;;;5053362;28;20434;-68
2021/11/03 12:58:03;;;;;;;15.40;11.00;;;10.50;93.30;;;;;;5052941;28;20896;-68
2021/11/03 13:00:35;;;;;;;13.47;10.10;;;10.50;93.30;;;;;;5053281;28;20449;-69
2021/11/03 13:03:04;;;;;;;13.60;11.87;;;10.40;93.30;;;;;;5053154;28;20450;-68